Map

Track Data

SID SEASON NUMBER BASIN SUBBASIN NAME ISO_TIME NATURE LAT LON WMO_WIND WMO_PRES WMO_AGENCY TRACK_TYPE DIST2LAND LANDFALL IFLAG USA_AGENCY USA_ATCF_ID USA_LAT USA_LON USA_RECORD USA_STATUS USA_WIND USA_PRES USA_SSHS USA_R34_NE USA_R34_SE USA_R34_SW USA_R34_NW USA_R50_NE USA_R50_SE USA_R50_SW USA_R50_NW USA_R64_NE USA_R64_SE USA_R64_SW USA_R64_NW USA_POCI USA_ROCI USA_RMW USA_EYE TOKYO_LAT TOKYO_LON TOKYO_GRADE TOKYO_WIND TOKYO_PRES TOKYO_R50_DIR TOKYO_R50_LONG TOKYO_R50_SHORT TOKYO_R30_DIR TOKYO_R30_LONG TOKYO_R30_SHORT TOKYO_LAND CMA_LAT CMA_LON CMA_CAT CMA_WIND CMA_PRES HKO_LAT HKO_LON HKO_CAT HKO_WIND HKO_PRES NEWDELHI_LAT NEWDELHI_LON NEWDELHI_GRADE NEWDELHI_WIND NEWDELHI_PRES NEWDELHI_CI NEWDELHI_DP NEWDELHI_POCI REUNION_LAT REUNION_LON REUNION_TYPE REUNION_WIND REUNION_PRES REUNION_TNUM REUNION_CI REUNION_RMW REUNION_R34_NE REUNION_R34_SE REUNION_R34_SW REUNION_R34_NW REUNION_R50_NE REUNION_R50_SE REUNION_R50_SW REUNION_R50_NW REUNION_R64_NE REUNION_R64_SE REUNION_R64_SW REUNION_R64_NW BOM_LAT BOM_LON BOM_TYPE BOM_WIND BOM_PRES BOM_TNUM BOM_CI BOM_RMW BOM_R34_NE BOM_R34_SE BOM_R34_SW BOM_R34_NW BOM_R50_NE BOM_R50_SE BOM_R50_SW BOM_R50_NW BOM_R64_NE BOM_R64_SE BOM_R64_SW BOM_R64_NW BOM_ROCI BOM_POCI BOM_EYE BOM_POS_METHOD BOM_PRES_METHOD NADI_LAT NADI_LON NADI_CAT NADI_WIND NADI_PRES WELLINGTON_LAT WELLINGTON_LON WELLINGTON_WIND WELLINGTON_PRES DS824_LAT DS824_LON DS824_STAGE DS824_WIND DS824_PRES TD9636_LAT TD9636_LON TD9636_STAGE TD9636_WIND TD9636_PRES TD9635_LAT TD9635_LON TD9635_WIND TD9635_PRES TD9635_ROCI NEUMANN_LAT NEUMANN_LON NEUMANN_CLASS NEUMANN_WIND NEUMANN_PRES MLC_LAT MLC_LON MLC_CLASS MLC_WIND MLC_PRES USA_GUST BOM_GUST BOM_GUST_PER REUNION_GUST REUNION_GUST_PER USA_SEAHGT USA_SEARAD_NE USA_SEARAD_SE USA_SEARAD_SW USA_SEARAD_NW STORM_SPEED STORM_DIR
2003137N07131 2003 29 WP MM NOT_NAMED 2003-05-17 00:00:00 TS 7.30000 130.700 main 452 452 O_____________ jtwc_wp WP032003 7.30000 130.700 TD 25 1002 -1 2 0
2003137N07131 2003 29 WP MM NOT_NAMED 2003-05-17 03:00:00 TS 7.39750 130.707 main 452 452 P_____________ WP032003 7.39750 130.707 TD 25 1002 -1 2 8
2003137N07131 2003 29 WP MM NOT_NAMED 2003-05-17 06:00:00 TS 7.50000 130.700 main 452 452 O_____________ jtwc_wp WP032003 7.50000 130.700 TD 25 1002 -1 2 350
2003137N07131 2003 29 WP MM NOT_NAMED 2003-05-17 09:00:00 TS 7.60750 130.665 main 452 441 P_____________ WP032003 7.60750 130.665 TD 25 1002 -1 2 333
2003137N07131 2003 29 WP MM NOT_NAMED 2003-05-17 12:00:00 TS 7.70000 130.600 main 441 430 O_____________ jtwc_wp WP032003 7.70000 130.600 TD 25 1002 -1 2 315
2003137N07131 2003 29 WP MM NOT_NAMED 2003-05-17 15:00:00 TS 7.76500 130.508 main 430 319 P_____________ WP032003 7.76500 130.508 TD 25 1002 -1 11 267
2003137N07131 2003 29 WP MM NOT_NAMED 2003-05-17 18:00:00 TS 7.65000 129.483 main 319 286 O_OO__________ jtwc_wp WP032003 7.80000 130.400 TD 25 1002 -1 1004 100 40 7.30000 127.700 1 23 1004 7.40000 127.600 TD 25 1004 13 265
2003137N07131 2003 29 WP MM NOT_NAMED 2003-05-17 21:00:00 TS 7.65128 129.183 main 286 275 P_PP__________ WP032003 7.80000 130.300 TD 25 1002 -1 1004 100 40 7.46499 128.072 1 23 1004 7.54011 128.060 TD 27 1003 3 281
2003137N07131 2003 29 WP MM NOT_NAMED 2003-05-18 00:00:00 TS 7.71000 129.180 main 286 286 O_OO__________ jtwc_wp WP032003 7.80000 130.200 TD 25 1002 -1 1004 100 40 7.60000 128.500 1 23 1004 7.70000 128.500 TD 30 1002 2 43
2003137N07131 2003 29 WP MM NOT_NAMED 2003-05-18 03:00:00 TS 7.80667 129.333 main 297 297 P_PP__________ WP032003 7.83500 130.085 TD 27 1001 -1 1004 105 40 7.69256 129.008 1 26 1003 7.89244 128.908 TD 30 1002 5 62
2003137N07131 2003 29 WP MM NOT_NAMED 2003-05-18 06:00:00 TS 7.93333 129.600 main 331 331 O_OO__________ jtwc_wp WP032003 7.90000 130.000 TD 30 1000 -1 1004 110 40 7.80000 129.500 1 29 1002 8.10000 129.300 TD 30 1002 6 61
2003137N07131 2003 29 WP MM NOT_NAMED 2003-05-18 09:00:00 TS 8.08998 129.857 main 366 366 P_PP__________ WP032003 7.96998 129.955 TD 30 1000 -1 1004 110 40 7.99245 129.895 1 29 1002 8.30752 129.722 TD 30 1002 6 56
2003137N07131 2003 29 WP MM NOT_NAMED 2003-05-18 12:00:00 TS 8.26667 130.100 main 391 391 O_OO__________ jtwc_wp WP032003 8.10000 130.000 TD 30 1000 -1 1004 110 40 8.20000 130.200 1 29 1002 8.50000 130.100 TD 30 1002 6 52
2003137N07131 2003 29 WP MM NOT_NAMED 2003-05-18 15:00:00 TS 8.44246 130.319 main 415 415 P_PP__________ WP032003 8.32751 130.162 TD 30 1000 -1 1004 110 40 8.34245 130.423 1 29 1002 8.65743 130.373 TD 30 1002 6 49
2003137N07131 2003 29 WP MM NOT_NAMED 2003-05-18 18:00:00 TS 8.63333 130.533 main 441 441 O_OO__________ jtwc_wp WP032003 8.60000 130.400 TD 30 1000 -1 1004 110 40 8.50000 130.600 1 29 1002 8.80000 130.600 TD 30 1002 6 48
2003137N07131 2003 29 WP MM NOT_NAMED 2003-05-18 21:00:00 TS 8.83748 130.762 main 478 478 P_PP__________ WP032003 8.85002 130.657 TD 30 1000 -1 1004 110 40 8.71998 130.793 1 29 1002 8.94245 130.835 TD 30 1002 6 47
2003137N07131 2003 29 WP MM NOT_NAMED 2003-05-19 00:00:00 TS 9.06667 131.000 main 509 509 O_OO__________ jtwc_wp WP032003 9.10000 130.900 TD 30 1000 -1 1004 110 40 9.00000 131.000 1 29 1002 9.10000 131.100 TD 30 1002 7 46
2003137N07131 2003 29 WP MM NOT_NAMED 2003-05-19 03:00:00 TS 9.32337 131.270 main 547 547 P_PP__________ WP032003 9.34248 131.080 TD 30 1000 -1 1004 110 40 9.34254 131.265 1 29 1002 9.28508 131.465 TD 30 1002 7 43
2003137N07131 2003 29 WP MM NOT_NAMED 2003-05-19 06:00:00 TS 9.60000 131.500 main 578 578 O_OO__________ jtwc_wp WP032003 9.60000 131.200 TD 30 1000 -1 1004 110 40 9.70000 131.500 1 29 1002 9.50000 131.800 TD 30 1002 7 36
2003137N07131 2003 29 WP MM NOT_NAMED 2003-05-19 09:00:00 TS 9.86579 131.667 main 605 605 P_PP__________ WP032003 9.89249 131.287 TD 30 1000 -1 1004 110 40 9.98495 131.675 1 29 1002 9.71994 132.040 TD 30 1002 6 19
2003137N07131 2003 29 WP MM NOT_NAMED 2003-05-19 12:00:00 TS 10.1667 131.700 main 613 604 O_OO__________ jtwc_wp WP032003 10.2000 131.300 TD 30 1000 -1 1004 110 40 10.3000 131.700 1 29 1002 10.0000 132.100 TD 30 1002 7 349
2003137N07131 2003 29 WP MM NOT_NAMED 2003-05-19 15:00:00 TS 10.5300 131.540 main 599 590 P_PP__________ WP032003 10.4850 131.215 TD 30 1000 -1 1004 110 50 10.7351 131.495 1 29 1002 10.3700 131.910 TD 30 1002 9 333
2003137N07131 2003 29 WP MM NOT_NAMED 2003-05-19 18:00:00 TS 10.9333 131.300 main 590 579 O_OO__________ jtwc_wp WP032003 10.8000 131.100 TD 30 1000 -1 1004 110 60 11.2000 131.200 1 29 1002 10.8000 131.600 TD 30 1002 9 333
2003137N07131 2003 29 WP MM NOT_NAMED 2003-05-19 21:00:00 TS 11.3400 131.118 main 579 570 P_PP__________ WP032003 11.1700 131.050 TD 30 1000 -1 1004 110 60 11.6075 130.970 1 29 1002 11.2425 131.335 TD 30 1002 9 339
2003137N07131 2003 29 WP MM NOT_NAMED 2003-05-20 00:00:00 TS 11.7667 130.967 main 574 563 O_OO__________ jtwc_wp WP032003 11.6000 131.000 TD 30 1000 -1 1004 110 60 12.0000 130.800 1 29 1002 11.7000 131.100 TD 30 1002 9 345
2003137N07131 2003 29 WP MM NOT_NAMED 2003-05-20 03:00:00 TS 12.2216 130.874 main 571 566 P_PP__________ WP032003 12.0925 130.922 TD 27 1001 -1 1005 105 50 12.3999 130.772 1 26 1003 12.1725 130.927 TD 30 1002 9 348
2003137N07131 2003 29 WP MM NOT_NAMED 2003-05-20 06:00:00 TS 12.6727 130.764 main 576 559 O_OO__________ jtwc_wp WP032003 12.6000 130.800 TD 25 1002 -1 1006 100 40 12.8000 130.700 1 23 1004 12.6000 130.800 TD 30 1002 9 341
2003137N07131 2003 29 WP MM NOT_NAMED 2003-05-20 09:00:00 TS 13.0500 130.573 main 560 537 P_PP__________ WP032003 13.0650 130.618 TD 25 1002 -1 13.1550 130.417 1 23 1005 12.9375 130.707 TD 30 1002 9 329
2003137N07131 2003 29 WP MM NOT_NAMED 2003-05-20 12:00:00 TS 13.4111 130.311 main 537 519 O_OO__________ jtwc_wp WP032003 13.5000 130.400 TD 25 1002 -1 13.6000 130.000 1 23 1006 13.2000 130.600 TD 30 1002 11 324
2003137N07131 2003 29 WP MM NOT_NAMED 2003-05-20 15:00:00 TS 13.8952 129.932 main 513 502 __PP__________ WP032003 TD -1 14.3603 129.449 1 23 1006 13.4300 130.415 TD 30 1002 11 322
2003137N07131 2003 29 WP MM NOT_NAMED 2003-05-20 18:00:00 TS 14.3000 129.600 main 502 498 __OO__________ 15.0000 129.000 1 23 1006 13.6000 130.200 TD 30 1002 7 319
2003137N07131 2003 29 WP MM NOT_NAMED 2003-05-20 21:00:00 TS 14.4136 129.462 main 498 492 __PP__________ 15.1048 128.925 1 23 1006 13.7225 130.000 TD 30 1002 1 276
2003137N07131 2003 29 WP MM NOT_NAMED 2003-05-21 00:00:00 TS 14.3143 129.457 main 492 478 __OO__________ 15.0000 129.000 1 23 1006 13.8000 129.800 TD 30 1002 2 200
2003137N07131 2003 29 WP MM NOT_NAMED 2003-05-21 03:00:00 TS 14.2167 129.393 main 478 463 __PP__________ 14.9651 129.025 1 23 1006 13.8425 129.577 TD 30 1002 2 214
2003137N07131 2003 29 WP MM NOT_NAMED 2003-05-21 06:00:00 TS 14.1200 129.320 main 463 458 __OO__________ 15.0000 129.000 1 23 1006 13.9000 129.400 TD 30 1002 2 206
2003137N07131 2003 29 WP MM NOT_NAMED 2003-05-21 09:00:00 NR 14.0350 129.305 main 458 458 ___P__________ 1 14.0350 129.305 TD 27 1003 1 0
2003137N07131 2003 29 WP MM NOT_NAMED 2003-05-21 12:00:00 NR 14.2000 129.300 main 468 468 ___O__________ 14.2000 129.300 TD 25 1004 3 9
2003137N07131 2003 29 WP MM NOT_NAMED 2003-05-21 15:00:00 NR 14.3500 129.363 main 483 483 ___P__________ 14.3500 129.363 TD 25 1004 4 33
2003137N07131 2003 29 WP MM NOT_NAMED 2003-05-21 18:00:00 NR 14.5000 129.500 main 503 503 ___O__________ 14.5000 129.500 TD 25 1004 4 46
2003137N07131 2003 29 WP MM NOT_NAMED 2003-05-21 21:00:00 NR 14.6501 129.687 main 533 533 ___P__________ 14.6501 129.687 TD 25 1004 5 52
2003137N07131 2003 29 WP MM NOT_NAMED 2003-05-22 00:00:00 NR 14.8000 129.900 main 557 ___O__________ 14.8000 129.900 TD 25 1004 5 54

Digital Typhoon Data and Search

About IBTrACS Database

This database is a web-friendly format of International Best Track Archive for Climate Stewardship (IBTrACS), a global best track data archive curated by NOAA dating back to 1842.

Updated: 2021-12-01